Time;durP1;ratioP1;P1;durP2;ratioP2;P2;SDS_P1;SDS_P2;PMS_P1;PMS_P2;Temp;Humidity;BMP_temperature;BMP_pressure;BME280_temperature;BME280_humidity;BME280_pressure;Samples;Min_cycle;Max_cycle;Signal;HPM_P1;HPM_P2
2021/05/01 00:01:11;;;;;;;12.85;7.80;;;;;;;18.86;62.75;94233.07;828393;71;29259;-77
2021/05/01 00:16:08;;;;;;;9.13;7.15;;;;;;;18.82;63.28;94248.94;828685;71;28669;-78
2021/05/01 00:31:19;;;;;;;13.32;6.87;;;;;;;18.64;63.64;94248.50;833218;71;31737;-77
2021/05/01 00:46:10;;;;;;;7.28;6.50;;;;;;;18.53;63.14;94252.78;827747;71;29421;-78
2021/05/01 01:01:17;;;;;;;9.33;6.55;;;;;;;18.46;62.48;94256.05;833550;71;31634;-77
2021/05/01 01:16:15;;;;;;;8.15;6.40;;;;;;;18.39;62.70;94232.75;827074;71;31815;-77
2021/05/01 01:31:09;;;;;;;10.08;6.28;;;;;;;18.35;62.73;94231.89;828200;71;30243;-80
2021/05/01 01:46:09;;;;;;;9.93;5.75;;;;;;;18.30;62.84;94224.73;793581;74;29237;-76
2021/05/01 02:01:14;;;;;;;6.22;5.55;;;;;;;18.22;62.94;94219.80;827284;71;32231;-78
2021/05/01 02:16:09;;;;;;;13.72;6.45;;;;;;;18.09;63.39;94240.36;827936;71;29524;-76
2021/05/01 02:31:17;;;;;;;6.20;5.30;;;;;;;17.98;63.69;94241.96;828844;71;31728;-77
2021/05/01 02:46:14;;;;;;;11.80;6.65;;;;;;;17.89;64.30;94230.74;834336;71;31771;-76
2021/05/01 03:01:48;;;;;;;9.93;6.83;;;;;;;17.77;64.91;94242.16;834220;71;31858;-78
2021/05/01 03:16:09;;;;;;;10.23;7.00;;;;;;;17.63;64.86;94254.48;833957;71;29241;-77
2021/05/01 03:31:16;;;;;;;9.33;6.55;;;;;;;17.54;64.97;94262.59;827102;71;32691;-77
2021/05/01 03:46:09;;;;;;;8.43;6.30;;;;;;;17.51;65.41;94265.14;827784;71;30325;-78
2021/05/01 04:01:09;;;;;;;8.00;6.10;;;;;;;17.58;65.39;94260.81;827785;71;30278;-75
2021/05/01 04:16:19;;;;;;;9.95;7.15;;;;;;;17.69;65.27;94272.27;826792;71;33584;-78
2021/05/01 04:31:10;;;;;;;11.50;6.47;;;;;;;18.75;64.27;94264.69;827884;71;30366;-78
2021/05/01 04:46:09;;;;;;;10.70;8.40;;;;;;;20.62;58.23;94270.48;828112;71;29276;-78
2021/05/01 05:01:20;;;;;;;9.43;6.72;;;;;;;21.86;54.25;94275.77;827195;71;32981;-78
2021/05/01 05:16:15;;;;;;;9.50;7.90;;;;;;;22.51;52.94;94286.58;828798;71;32686;-80
2021/05/01 05:31:09;;;;;;;8.90;7.20;;;;;;;23.87;48.89;94288.80;834129;71;29671;-77
2021/05/01 05:46:16;;;;;;;10.30;7.30;;;;;;;24.02;47.92;94294.97;827353;71;32691;-77
2021/05/01 06:01:18;;;;;;;10.30;7.00;;;;;;;25.84;44.84;94289.37;829771;71;32649;-79
2021/05/01 06:16:16;;;;;;;10.33;7.50;;;;;;;27.30;40.90;94304.99;828567;71;33223;-79
2021/05/01 06:31:14;;;;;;;11.43;7.17;;;;;;;28.35;38.45;94281.05;834066;71;32588;-78
2021/05/01 06:46:11;;;;;;;10.23;6.67;;;;;;;28.91;37.10;94261.13;833983;71;30732;-80
2021/05/01 07:01:11;;;;;;;6.53;5.90;;;;;;;29.03;36.95;94303.57;827802;71;30340;-77
2021/05/01 07:02:15;;;;;;;8.47;6.23;;;;;;;29.09;36.77;94308.68;808249;73;25963;-79
2021/05/01 07:16:16;;;;;;;8.63;7.77;;;;;;;30.22;35.05;94340.83;833837;71;31716;-79
2021/05/01 07:31:11;;;;;;;8.73;7.70;;;;;;;30.52;34.57;94345.26;828175;71;29757;-79
2021/05/01 07:46:15;;;;;;;11.37;7.10;;;;;;;31.12;33.32;94345.66;834775;71;33008;-78
2021/05/01 08:01:09;;;;;;;8.70;6.27;;;;;;;30.78;32.83;94359.59;833869;71;30812;-77
2021/05/01 08:16:09;;;;;;;6.87;6.27;;;;;;;30.29;32.82;94350.74;827896;71;30321;-78
2021/05/01 08:31:15;;;;;;;7.97;6.10;;;;;;;30.21;32.94;94338.54;826372;71;33165;-82
2021/05/01 08:46:17;;;;;;;10.63;6.87;;;;;;;30.38;32.87;94325.25;827115;71;32930;-80
2021/05/01 09:01:39;;;;;;;8.60;6.17;;;;;;;30.38;32.38;94302.84;834030;71;30218;-77
2021/05/01 09:16:17;;;;;;;11.97;6.60;;;;;;;29.75;33.29;94282.23;829189;71;32781;-78
2021/05/01 09:31:21;;;;;;;11.13;6.77;;;;;;;28.82;35.35;94300.64;827268;71;32797;-79
2021/05/01 09:46:15;;;;;;;9.20;6.60;;;;;;;28.66;35.62;94287.16;827255;71;32713;-78
2021/05/01 10:01:13;;;;;;;8.40;7.53;;;;;;;28.10;36.22;94258.44;829762;70;31390;-79
2021/05/01 10:16:12;;;;;;;10.20;6.83;;;;;;;29.85;33.49;94254.05;834225;71;32579;-79
2021/05/01 10:31:22;;;;;;;9.50;6.10;;;;;;;31.60;30.32;94223.98;825125;71;32995;-78
2021/05/01 10:46:17;;;;;;;7.80;5.20;;;;;;;32.64;27.56;94196.45;833156;71;32714;-79
2021/05/01 11:01:11;;;;;;;10.13;4.60;;;;;;;33.00;25.26;94193.31;828128;71;29811;-80
2021/05/01 11:16:17;;;;;;;7.63;4.70;;;;;;;31.60;26.25;94204.98;826978;71;32782;-78
2021/05/01 11:31:20;;;;;;;8.13;4.53;;;;;;;30.69;26.67;94175.96;827151;71;32808;-77
2021/05/01 11:46:17;;;;;;;10.30;4.27;;;;;;;31.11;25.52;94153.78;827243;71;29884;-77
2021/05/01 12:01:24;;;;;;;6.77;4.63;;;;;;;30.78;25.96;94107.61;826874;71;33360;-78
2021/05/01 12:16:21;;;;;;;6.50;4.00;;;;;;;31.87;24.30;94094.05;827564;71;32103;-78
2021/05/01 12:31:10;;;;;;;8.63;3.47;;;;;;;33.39;22.59;94063.94;833058;71;31202;-80
2021/05/01 12:46:32;;;;;;;8.30;3.37;;;;;;;33.35;21.72;94076.92;828153;71;30352;-80
2021/05/01 13:01:27;;;;;;;5.43;3.83;;;;;;;32.65;22.73;94085.22;833340;71;30651;-77
2021/05/01 13:16:15;;;;;;;9.03;4.23;;;;;;;32.05;23.30;94032.44;828888;71;33110;-78
2021/05/01 13:31:10;;;;;;;7.03;3.70;;;;;;;31.77;23.21;94045.55;828227;71;30300;-79
2021/05/01 13:46:19;;;;;;;9.50;3.57;;;;;;;30.65;24.44;94037.14;833961;71;33059;-78
2021/05/01 14:01:10;;;;;;;7.97;3.80;;;;;;;30.20;25.50;94026.48;834013;71;30275;-78
2021/05/01 14:16:14;;;;;;;5.50;3.77;;;;;;;29.58;26.67;94031.05;828490;71;30334;-79
2021/05/01 14:31:21;;;;;;;10.43;4.40;;;;;;;29.44;27.26;94036.18;833656;71;32011;-77
2021/05/01 14:46:21;;;;;;;8.37;4.23;;;;;;;29.11;27.82;94063.91;833967;71;30269;-77
2021/05/01 15:01:44;;;;;;;6.30;3.50;;;;;;;28.46;27.76;94058.17;828918;71;32801;-79
2021/05/01 15:16:19;;;;;;;7.00;3.47;;;;;;;27.62;29.21;94006.00;826833;71;33193;-77
2021/05/01 15:31:14;;;;;;;5.03;3.10;;;;;;;27.33;29.65;93976.77;827263;71;32737;-77
2021/05/01 15:46:19;;;;;;;4.90;3.07;;;;;;;27.02;30.04;93975.45;827028;71;32690;-77
2021/05/01 16:01:17;;;;;;;5.70;2.70;;;;;;;26.55;33.95;94004.88;827350;71;32730;-78
2021/05/01 16:16:08;;;;;;;8.03;4.80;;;;;;;;;;827896;71;30613;-77
2021/05/01 16:31:14;;;;;;;8.37;3.57;;;;;;;25.73;37.94;94038.09;827723;71;32656;-78
2021/05/01 16:46:09;;;;;;;6.63;2.60;;;;;;;25.42;37.79;94052.52;828005;71;30601;-78
2021/05/01 17:01:18;;;;;;;9.07;3.70;;;;;;;25.11;38.48;94063.78;834462;71;32741;-77
2021/05/01 17:16:09;;;;;;;6.57;3.70;;;;;;;24.74;39.97;94060.31;827662;71;30746;-77
2021/05/01 17:31:30;;;;;;;6.30;3.97;;;;;;;24.38;40.19;94046.96;828175;71;30289;-79
2021/05/01 17:46:38;;;;;;;8.53;4.60;;;;;;;23.97;41.99;94041.47;828290;71;29708;-77
2021/05/01 18:01:12;;;;;;;10.23;4.00;;;;;;;23.78;42.91;94082.05;827596;71;32698;-79
2021/05/01 18:16:15;;;;;;;11.10;5.13;;;;;;;23.47;43.83;94074.91;834564;71;33548;-78
2021/05/01 18:31:11;;;;;;;11.03;6.10;;;;;;;23.33;44.48;94091.70;828894;71;29640;-77
2021/05/01 18:46:11;;;;;;;11.97;5.17;;;;;;;23.06;46.32;94103.88;829526;71;30359;-77
2021/05/01 19:01:16;;;;;;;9.20;5.00;;;;;;;22.57;48.85;94123.30;828505;71;32826;-78
2021/05/01 19:16:11;;;;;;;12.00;4.47;;;;;;;22.38;49.45;94141.14;827632;71;31319;-77
2021/05/01 19:31:16;;;;;;;7.70;4.50;;;;;;;22.31;50.26;94159.79;833284;71;33496;-78
2021/05/01 19:46:16;;;;;;;6.35;4.45;;;;;;;22.21;50.75;94151.85;826736;71;32752;-77
2021/05/01 20:01:15;;;;;;;10.80;5.30;;;;;;;22.10;51.25;94160.92;829099;71;32909;-77
2021/05/01 20:16:09;;;;;;;6.60;3.90;;;;;;;21.86;52.00;94155.55;827700;71;29934;-78
2021/05/01 20:31:14;;;;;;;7.15;5.50;;;;;;;21.52;53.83;94172.40;833689;71;33538;-77
2021/05/01 20:46:14;;;;;;;7.97;4.65;;;;;;;21.21;54.71;94183.66;833959;71;30251;-78
2021/05/01 21:01:46;;;;;;;11.30;5.92;;;;;;;21.26;54.39;94185.23;827247;71;33386;-78
2021/05/01 21:16:16;;;;;;;10.05;4.80;;;;;;;21.25;54.74;94159.69;826962;71;32711;-77
2021/05/01 21:31:15;;;;;;;9.58;4.87;;;;;;;21.03;55.13;94119.98;826792;71;33191;-77
2021/05/01 21:46:12;;;;;;;10.30;5.65;;;;;;;21.03;55.27;94093.30;828424;71;29874;-80
2021/05/01 22:01:11;;;;;;;6.90;4.22;;;;;;;21.02;55.86;94097.08;828168;71;29699;-79
2021/05/01 22:16:14;;;;;;;12.33;4.60;;;;;;;20.86;56.22;94063.17;827774;71;32718;-78
2021/05/01 22:31:11;;;;;;;8.23;4.55;;;;;;;20.84;55.92;94024.86;828391;71;29707;-79
2021/05/01 22:46:17;;;;;;;8.25;5.00;;;;;;;20.80;56.42;94019.51;833829;71;32741;-76
2021/05/01 23:01:11;;;;;;;9.28;5.22;;;;;;;20.74;56.83;94005.51;834713;71;29705;-76
2021/05/01 23:16:19;;;;;;;8.58;5.00;;;;;;;20.54;57.54;94001.66;835431;71;32674;-77
2021/05/01 23:31:09;;;;;;;7.35;4.47;;;;;;;20.50;57.70;93976.07;828080;71;29772;-77
2021/05/01 23:46:18;;;;;;;6.92;4.80;;;;;;;20.37;58.38;93957.66;833526;71;33225;-78
